sensor_id;sensor_type;location;lat;lon;timestamp;P1;durP1;ratioP1;P2;durP2;ratioP2
781;SDS011;374;52.568;13.402;2023-03-01T00:01:11;37.77;;;28.60;;
781;SDS011;374;52.568;13.402;2023-03-01T00:03:38;39.93;;;25.10;;
781;SDS011;374;52.568;13.402;2023-03-01T00:06:04;43.27;;;28.30;;
781;SDS011;374;52.568;13.402;2023-03-01T00:08:31;39.43;;;26.17;;
781;SDS011;374;52.568;13.402;2023-03-01T00:13:29;35.47;;;27.47;;
781;SDS011;374;52.568;13.402;2023-03-01T00:15:55;43.03;;;26.87;;
781;SDS011;374;52.568;13.402;2023-03-01T00:18:20;39.80;;;27.60;;
781;SDS011;374;52.568;13.402;2023-03-01T00:20:54;38.80;;;26.27;;
781;SDS011;374;52.568;13.402;2023-03-01T00:23:20;33.53;;;26.10;;
781;SDS011;374;52.568;13.402;2023-03-01T00:25:46;37.37;;;27.80;;
781;SDS011;374;52.568;13.402;2023-03-01T00:28:12;34.97;;;26.10;;
781;SDS011;374;52.568;13.402;2023-03-01T00:30:37;31.27;;;25.93;;
781;SDS011;374;52.568;13.402;2023-03-01T00:33:03;43.23;;;28.83;;
781;SDS011;374;52.568;13.402;2023-03-01T00:35:29;40.17;;;28.90;;
781;SDS011;374;52.568;13.402;2023-03-01T00:37:54;37.87;;;27.47;;
781;SDS011;374;52.568;13.402;2023-03-01T00:40:32;39.10;;;28.30;;
781;SDS011;374;52.568;13.402;2023-03-01T00:42:59;36.50;;;28.07;;
781;SDS011;374;52.568;13.402;2023-03-01T00:45:25;39.57;;;27.43;;
781;SDS011;374;52.568;13.402;2023-03-01T00:47:51;40.53;;;30.13;;
781;SDS011;374;52.568;13.402;2023-03-01T00:50:16;33.33;;;26.57;;
781;SDS011;374;52.568;13.402;2023-03-01T00:52:43;38.37;;;28.37;;
781;SDS011;374;52.568;13.402;2023-03-01T00:55:09;38.93;;;27.13;;
781;SDS011;374;52.568;13.402;2023-03-01T00:57:36;38.10;;;27.33;;
781;SDS011;374;52.568;13.402;2023-03-01T01:00:02;39.93;;;25.87;;
781;SDS011;374;52.568;13.402;2023-03-01T01:02:29;34.90;;;26.10;;
781;SDS011;374;52.568;13.402;2023-03-01T01:04:54;34.03;;;25.43;;
781;SDS011;374;52.568;13.402;2023-03-01T01:07:20;35.67;;;24.77;;
781;SDS011;374;52.568;13.402;2023-03-01T01:09:46;35.30;;;25.23;;
781;SDS011;374;52.568;13.402;2023-03-01T01:12:11;34.03;;;23.80;;
781;SDS011;374;52.568;13.402;2023-03-01T01:14:37;34.60;;;23.87;;
781;SDS011;374;52.568;13.402;2023-03-01T01:17:03;31.43;;;23.20;;
781;SDS011;374;52.568;13.402;2023-03-01T01:19:29;29.80;;;23.37;;
781;SDS011;374;52.568;13.402;2023-03-01T01:21:55;32.80;;;24.00;;
781;SDS011;374;52.568;13.402;2023-03-01T01:24:21;32.97;;;24.33;;
781;SDS011;374;52.568;13.402;2023-03-01T01:26:46;33.13;;;25.17;;
781;SDS011;374;52.568;13.402;2023-03-01T01:29:12;30.40;;;22.40;;
781;SDS011;374;52.568;13.402;2023-03-01T01:31:38;38.30;;;23.97;;
781;SDS011;374;52.568;13.402;2023-03-01T01:34:06;32.60;;;23.90;;
781;SDS011;374;52.568;13.402;2023-03-01T01:36:34;32.80;;;24.23;;
781;SDS011;374;52.568;13.402;2023-03-01T01:39:00;36.20;;;24.77;;
781;SDS011;374;52.568;13.402;2023-03-01T01:41:27;32.93;;;24.73;;
781;SDS011;374;52.568;13.402;2023-03-01T01:47:04;31.73;;;22.33;;
781;SDS011;374;52.568;13.402;2023-03-01T01:49:52;34.23;;;22.90;;
781;SDS011;374;52.568;13.402;2023-03-01T01:52:26;29.87;;;23.93;;
781;SDS011;374;52.568;13.402;2023-03-01T01:54:57;27.10;;;20.37;;
781;SDS011;374;52.568;13.402;2023-03-01T01:57:36;28.37;;;20.53;;
781;SDS011;374;52.568;13.402;2023-03-01T02:00:07;37.60;;;21.93;;
781;SDS011;374;52.568;13.402;2023-03-01T02:02:37;26.90;;;22.90;;
781;SDS011;374;52.568;13.402;2023-03-01T02:05:15;29.10;;;21.57;;
781;SDS011;374;52.568;13.402;2023-03-01T02:07:54;34.67;;;22.23;;
781;SDS011;374;52.568;13.402;2023-03-01T02:10:22;29.37;;;22.40;;
781;SDS011;374;52.568;13.402;2023-03-01T02:12:49;33.10;;;22.73;;
781;SDS011;374;52.568;13.402;2023-03-01T02:15:16;32.07;;;21.53;;
781;SDS011;374;52.568;13.402;2023-03-01T02:17:42;25.90;;;21.67;;
781;SDS011;374;52.568;13.402;2023-03-01T02:20:16;23.10;;;20.17;;
781;SDS011;374;52.568;13.402;2023-03-01T02:22:51;25.53;;;21.10;;
781;SDS011;374;52.568;13.402;2023-03-01T02:25:26;26.30;;;20.57;;
781;SDS011;374;52.568;13.402;2023-03-01T02:30:45;25.00;;;19.60;;
781;SDS011;374;52.568;13.402;2023-03-01T02:33:31;30.20;;;19.97;;
781;SDS011;374;52.568;13.402;2023-03-01T02:36:01;27.83;;;21.30;;
781;SDS011;374;52.568;13.402;2023-03-01T02:38:29;27.53;;;20.57;;
781;SDS011;374;52.568;13.402;2023-03-01T02:40:56;31.27;;;21.87;;
781;SDS011;374;52.568;13.402;2023-03-01T02:43:22;29.57;;;21.57;;
781;SDS011;374;52.568;13.402;2023-03-01T02:45:52;29.17;;;22.40;;
781;SDS011;374;52.568;13.402;2023-03-01T02:48:18;27.90;;;20.90;;
781;SDS011;374;52.568;13.402;2023-03-01T02:53:35;28.50;;;21.80;;
781;SDS011;374;52.568;13.402;2023-03-01T02:56:11;28.07;;;22.07;;
781;SDS011;374;52.568;13.402;2023-03-01T02:58:38;29.30;;;22.70;;
781;SDS011;374;52.568;13.402;2023-03-01T03:01:09;30.33;;;19.87;;
781;SDS011;374;52.568;13.402;2023-03-01T03:03:35;30.90;;;20.37;;
781;SDS011;374;52.568;13.402;2023-03-01T03:06:01;30.03;;;22.13;;
781;SDS011;374;52.568;13.402;2023-03-01T03:08:26;30.20;;;22.20;;
781;SDS011;374;52.568;13.402;2023-03-01T03:10:52;28.77;;;21.10;;
781;SDS011;374;52.568;13.402;2023-03-01T03:13:17;28.83;;;20.40;;
781;SDS011;374;52.568;13.402;2023-03-01T03:15:44;26.87;;;20.27;;
781;SDS011;374;52.568;13.402;2023-03-01T03:18:10;26.33;;;21.13;;
781;SDS011;374;52.568;13.402;2023-03-01T03:20:38;33.93;;;22.67;;
781;SDS011;374;52.568;13.402;2023-03-01T03:23:05;24.83;;;19.10;;
781;SDS011;374;52.568;13.402;2023-03-01T03:25:30;30.60;;;20.17;;
781;SDS011;374;52.568;13.402;2023-03-01T03:27:56;29.17;;;19.70;;
781;SDS011;374;52.568;13.402;2023-03-01T03:30:24;25.63;;;19.40;;
781;SDS011;374;52.568;13.402;2023-03-01T03:32:51;26.27;;;20.33;;
781;SDS011;374;52.568;13.402;2023-03-01T03:35:18;30.57;;;20.10;;
781;SDS011;374;52.568;13.402;2023-03-01T03:37:49;23.77;;;19.50;;
781;SDS011;374;52.568;13.402;2023-03-01T03:40:29;23.03;;;19.27;;
781;SDS011;374;52.568;13.402;2023-03-01T03:42:56;25.60;;;19.80;;
781;SDS011;374;52.568;13.402;2023-03-01T03:45:22;29.30;;;19.90;;
781;SDS011;374;52.568;13.402;2023-03-01T03:47:47;22.83;;;18.73;;
781;SDS011;374;52.568;13.402;2023-03-01T03:50:13;27.90;;;18.37;;
781;SDS011;374;52.568;13.402;2023-03-01T03:52:40;22.70;;;17.60;;
781;SDS011;374;52.568;13.402;2023-03-01T03:55:06;22.00;;;18.90;;
781;SDS011;374;52.568;13.402;2023-03-01T03:57:36;29.20;;;19.13;;
781;SDS011;374;52.568;13.402;2023-03-01T04:00:03;21.77;;;18.47;;
781;SDS011;374;52.568;13.402;2023-03-01T04:02:30;24.00;;;18.83;;
781;SDS011;374;52.568;13.402;2023-03-01T04:04:55;23.27;;;18.57;;
781;SDS011;374;52.568;13.402;2023-03-01T04:07:21;25.73;;;17.73;;
781;SDS011;374;52.568;13.402;2023-03-01T04:09:47;21.37;;;16.97;;
781;SDS011;374;52.568;13.402;2023-03-01T04:12:12;23.77;;;18.10;;
781;SDS011;374;52.568;13.402;2023-03-01T04:14:38;24.93;;;18.83;;
781;SDS011;374;52.568;13.402;2023-03-01T04:17:03;24.60;;;18.23;;
781;SDS011;374;52.568;13.402;2023-03-01T04:19:30;24.57;;;18.30;;
781;SDS011;374;52.568;13.402;2023-03-01T04:22:03;23.03;;;17.33;;
781;SDS011;374;52.568;13.402;2023-03-01T04:24:34;25.10;;;17.83;;
781;SDS011;374;52.568;13.402;2023-03-01T04:27:00;24.00;;;17.90;;
781;SDS011;374;52.568;13.402;2023-03-01T04:29:26;26.90;;;18.20;;
781;SDS011;374;52.568;13.402;2023-03-01T04:31:51;25.23;;;18.90;;
781;SDS011;374;52.568;13.402;2023-03-01T04:34:17;27.03;;;18.20;;
781;SDS011;374;52.568;13.402;2023-03-01T04:36:43;24.30;;;18.30;;
781;SDS011;374;52.568;13.402;2023-03-01T04:39:08;22.17;;;17.20;;
781;SDS011;374;52.568;13.402;2023-03-01T04:41:37;24.93;;;19.50;;
781;SDS011;374;52.568;13.402;2023-03-01T04:44:04;24.73;;;18.83;;
781;SDS011;374;52.568;13.402;2023-03-01T04:46:29;21.60;;;18.00;;
781;SDS011;374;52.568;13.402;2023-03-01T04:48:55;27.60;;;18.97;;
781;SDS011;374;52.568;13.402;2023-03-01T04:51:21;26.43;;;17.77;;
781;SDS011;374;52.568;13.402;2023-03-01T04:53:46;24.53;;;17.20;;
781;SDS011;374;52.568;13.402;2023-03-01T04:56:12;20.00;;;16.87;;
781;SDS011;374;52.568;13.402;2023-03-01T04:58:42;23.47;;;16.13;;
781;SDS011;374;52.568;13.402;2023-03-01T05:01:10;27.37;;;17.27;;
781;SDS011;374;52.568;13.402;2023-03-01T05:03:40;22.03;;;16.30;;
781;SDS011;374;52.568;13.402;2023-03-01T05:06:07;22.80;;;16.97;;
781;SDS011;374;52.568;13.402;2023-03-01T05:08:32;23.60;;;17.50;;
781;SDS011;374;52.568;13.402;2023-03-01T05:10:59;20.77;;;16.97;;
781;SDS011;374;52.568;13.402;2023-03-01T05:13:24;22.87;;;16.37;;
781;SDS011;374;52.568;13.402;2023-03-01T05:15:58;23.17;;;18.00;;
781;SDS011;374;52.568;13.402;2023-03-01T05:18:25;24.33;;;16.53;;
781;SDS011;374;52.568;13.402;2023-03-01T05:20:53;24.30;;;16.63;;
781;SDS011;374;52.568;13.402;2023-03-01T05:23:21;21.27;;;16.83;;
781;SDS011;374;52.568;13.402;2023-03-01T05:25:47;20.23;;;16.37;;
781;SDS011;374;52.568;13.402;2023-03-01T05:28:14;23.90;;;17.70;;
781;SDS011;374;52.568;13.402;2023-03-01T05:30:40;23.47;;;17.43;;
781;SDS011;374;52.568;13.402;2023-03-01T05:33:05;23.17;;;16.40;;
781;SDS011;374;52.568;13.402;2023-03-01T05:35:38;23.30;;;15.67;;
781;SDS011;374;52.568;13.402;2023-03-01T05:38:08;20.23;;;15.47;;
781;SDS011;374;52.568;13.402;2023-03-01T05:40:38;24.40;;;16.60;;
781;SDS011;374;52.568;13.402;2023-03-01T05:43:04;18.80;;;15.80;;
781;SDS011;374;52.568;13.402;2023-03-01T05:45:30;21.33;;;16.30;;
781;SDS011;374;52.568;13.402;2023-03-01T05:47:57;22.73;;;16.90;;
781;SDS011;374;52.568;13.402;2023-03-01T05:50:24;23.53;;;17.17;;
781;SDS011;374;52.568;13.402;2023-03-01T05:52:52;20.20;;;15.17;;
781;SDS011;374;52.568;13.402;2023-03-01T05:55:32;18.33;;;14.33;;
781;SDS011;374;52.568;13.402;2023-03-01T05:57:59;22.80;;;17.50;;
781;SDS011;374;52.568;13.402;2023-03-01T06:00:25;21.07;;;15.90;;
781;SDS011;374;52.568;13.402;2023-03-01T06:02:53;27.83;;;18.40;;
781;SDS011;374;52.568;13.402;2023-03-01T06:05:19;24.10;;;17.77;;
781;SDS011;374;52.568;13.402;2023-03-01T06:07:45;24.03;;;15.70;;
781;SDS011;374;52.568;13.402;2023-03-01T06:10:11;23.13;;;16.80;;
781;SDS011;374;52.568;13.402;2023-03-01T06:12:38;29.37;;;16.80;;
781;SDS011;374;52.568;13.402;2023-03-01T06:15:05;22.03;;;16.93;;
781;SDS011;374;52.568;13.402;2023-03-01T06:17:32;21.33;;;16.20;;
781;SDS011;374;52.568;13.402;2023-03-01T06:20:02;21.83;;;17.23;;
781;SDS011;374;52.568;13.402;2023-03-01T06:22:29;22.73;;;16.37;;
781;SDS011;374;52.568;13.402;2023-03-01T06:24:54;23.53;;;16.10;;
781;SDS011;374;52.568;13.402;2023-03-01T06:27:20;19.90;;;16.13;;
781;SDS011;374;52.568;13.402;2023-03-01T06:29:45;18.50;;;15.83;;
781;SDS011;374;52.568;13.402;2023-03-01T06:32:10;20.73;;;16.60;;
781;SDS011;374;52.568;13.402;2023-03-01T06:34:36;19.37;;;15.30;;
781;SDS011;374;52.568;13.402;2023-03-01T06:37:01;24.80;;;16.50;;
781;SDS011;374;52.568;13.402;2023-03-01T06:39:29;23.03;;;16.87;;
781;SDS011;374;52.568;13.402;2023-03-01T06:41:55;24.47;;;17.13;;
781;SDS011;374;52.568;13.402;2023-03-01T06:44:21;19.33;;;16.17;;
781;SDS011;374;52.568;13.402;2023-03-01T06:46:46;27.17;;;17.97;;
781;SDS011;374;52.568;13.402;2023-03-01T06:49:12;25.00;;;20.53;;
781;SDS011;374;52.568;13.402;2023-03-01T06:51:39;39.80;;;29.03;;
781;SDS011;374;52.568;13.402;2023-03-01T06:54:04;34.50;;;24.33;;
781;SDS011;374;52.568;13.402;2023-03-01T06:56:30;30.37;;;24.83;;
781;SDS011;374;52.568;13.402;2023-03-01T06:58:57;28.20;;;23.77;;
781;SDS011;374;52.568;13.402;2023-03-01T07:01:22;27.93;;;19.33;;
781;SDS011;374;52.568;13.402;2023-03-01T07:03:48;26.37;;;18.90;;
781;SDS011;374;52.568;13.402;2023-03-01T07:06:13;31.70;;;21.13;;
781;SDS011;374;52.568;13.402;2023-03-01T07:08:39;28.43;;;20.03;;
781;SDS011;374;52.568;13.402;2023-03-01T07:11:05;21.33;;;18.10;;
781;SDS011;374;52.568;13.402;2023-03-01T07:13:30;32.40;;;20.20;;
781;SDS011;374;52.568;13.402;2023-03-01T07:15:56;29.03;;;18.00;;
781;SDS011;374;52.568;13.402;2023-03-01T07:18:22;23.93;;;19.20;;
781;SDS011;374;52.568;13.402;2023-03-01T07:20:48;28.27;;;19.03;;
781;SDS011;374;52.568;13.402;2023-03-01T07:23:13;26.20;;;19.20;;
781;SDS011;374;52.568;13.402;2023-03-01T07:25:40;26.63;;;17.70;;
781;SDS011;374;52.568;13.402;2023-03-01T07:28:05;24.27;;;19.27;;
781;SDS011;374;52.568;13.402;2023-03-01T07:30:32;26.33;;;19.27;;
781;SDS011;374;52.568;13.402;2023-03-01T07:32:58;24.20;;;17.97;;
781;SDS011;374;52.568;13.402;2023-03-01T07:35:27;25.13;;;18.60;;
781;SDS011;374;52.568;13.402;2023-03-01T07:37:53;25.27;;;19.07;;
781;SDS011;374;52.568;13.402;2023-03-01T07:40:18;18.90;;;16.07;;
781;SDS011;374;52.568;13.402;2023-03-01T07:42:44;25.10;;;17.80;;
781;SDS011;374;52.568;13.402;2023-03-01T07:45:10;28.10;;;18.37;;
781;SDS011;374;52.568;13.402;2023-03-01T07:47:36;27.90;;;19.10;;
781;SDS011;374;52.568;13.402;2023-03-01T07:50:02;27.90;;;19.60;;
781;SDS011;374;52.568;13.402;2023-03-01T07:52:28;24.13;;;19.10;;
781;SDS011;374;52.568;13.402;2023-03-01T07:54:55;31.07;;;19.47;;
781;SDS011;374;52.568;13.402;2023-03-01T07:57:21;24.97;;;17.90;;
781;SDS011;374;52.568;13.402;2023-03-01T07:59:47;25.03;;;19.97;;
781;SDS011;374;52.568;13.402;2023-03-01T08:02:12;26.23;;;19.83;;
781;SDS011;374;52.568;13.402;2023-03-01T08:04:39;23.57;;;19.80;;
781;SDS011;374;52.568;13.402;2023-03-01T08:07:05;21.87;;;18.90;;
781;SDS011;374;52.568;13.402;2023-03-01T08:09:31;23.27;;;17.90;;
781;SDS011;374;52.568;13.402;2023-03-01T08:11:59;27.70;;;18.37;;
781;SDS011;374;52.568;13.402;2023-03-01T08:14:24;25.00;;;18.80;;
781;SDS011;374;52.568;13.402;2023-03-01T08:16:50;24.90;;;17.03;;
781;SDS011;374;52.568;13.402;2023-03-01T08:19:15;23.37;;;15.43;;
781;SDS011;374;52.568;13.402;2023-03-01T08:21:41;17.77;;;15.00;;
781;SDS011;374;52.568;13.402;2023-03-01T08:24:07;19.33;;;16.20;;
781;SDS011;374;52.568;13.402;2023-03-01T08:26:35;20.43;;;13.97;;
781;SDS011;374;52.568;13.402;2023-03-01T08:29:00;19.27;;;15.70;;
781;SDS011;374;52.568;13.402;2023-03-01T08:31:30;20.00;;;15.90;;
781;SDS011;374;52.568;13.402;2023-03-01T08:33:58;19.03;;;15.50;;
781;SDS011;374;52.568;13.402;2023-03-01T08:36:26;18.50;;;16.03;;
781;SDS011;374;52.568;13.402;2023-03-01T08:38:53;21.27;;;14.90;;
781;SDS011;374;52.568;13.402;2023-03-01T08:41:19;18.53;;;15.50;;
781;SDS011;374;52.568;13.402;2023-03-01T08:43:45;20.70;;;15.70;;
781;SDS011;374;52.568;13.402;2023-03-01T08:46:11;21.27;;;15.83;;
781;SDS011;374;52.568;13.402;2023-03-01T08:48:37;18.70;;;13.93;;
781;SDS011;374;52.568;13.402;2023-03-01T08:51:06;16.00;;;12.30;;
781;SDS011;374;52.568;13.402;2023-03-01T08:53:40;19.43;;;12.70;;
781;SDS011;374;52.568;13.402;2023-03-01T08:56:06;16.77;;;12.07;;
781;SDS011;374;52.568;13.402;2023-03-01T08:58:32;15.27;;;12.10;;
781;SDS011;374;52.568;13.402;2023-03-01T09:00:58;12.47;;;10.00;;
781;SDS011;374;52.568;13.402;2023-03-01T09:03:23;14.80;;;11.40;;
781;SDS011;374;52.568;13.402;2023-03-01T09:05:50;12.63;;;9.37;;
781;SDS011;374;52.568;13.402;2023-03-01T09:08:16;8.60;;;7.77;;
781;SDS011;374;52.568;13.402;2023-03-01T09:10:42;9.97;;;7.43;;
781;SDS011;374;52.568;13.402;2023-03-01T09:13:08;10.20;;;7.70;;
781;SDS011;374;52.568;13.402;2023-03-01T09:15:36;11.60;;;9.20;;
781;SDS011;374;52.568;13.402;2023-03-01T09:18:02;12.30;;;8.43;;
781;SDS011;374;52.568;13.402;2023-03-01T09:20:28;10.50;;;7.93;;
781;SDS011;374;52.568;13.402;2023-03-01T09:22:55;11.70;;;8.53;;
781;SDS011;374;52.568;13.402;2023-03-01T09:25:21;12.23;;;8.90;;
781;SDS011;374;52.568;13.402;2023-03-01T09:27:46;11.80;;;8.60;;
781;SDS011;374;52.568;13.402;2023-03-01T09:30:12;10.03;;;7.73;;
781;SDS011;374;52.568;13.402;2023-03-01T09:32:39;11.73;;;9.47;;
781;SDS011;374;52.568;13.402;2023-03-01T09:35:08;8.33;;;7.50;;
781;SDS011;374;52.568;13.402;2023-03-01T09:37:34;11.93;;;8.13;;
781;SDS011;374;52.568;13.402;2023-03-01T09:40:00;11.43;;;6.47;;
781;SDS011;374;52.568;13.402;2023-03-01T09:42:28;7.30;;;6.60;;
781;SDS011;374;52.568;13.402;2023-03-01T09:45:07;7.43;;;6.70;;
781;SDS011;374;52.568;13.402;2023-03-01T09:47:43;7.03;;;5.50;;
781;SDS011;374;52.568;13.402;2023-03-01T09:50:11;6.93;;;5.33;;
781;SDS011;374;52.568;13.402;2023-03-01T09:55:14;10.83;;;6.00;;
781;SDS011;374;52.568;13.402;2023-03-01T09:57:53;8.00;;;5.63;;
781;SDS011;374;52.568;13.402;2023-03-01T10:00:52;6.20;;;4.40;;
781;SDS011;374;52.568;13.402;2023-03-01T10:03:26;5.37;;;4.43;;
781;SDS011;374;52.568;13.402;2023-03-01T10:06:01;6.27;;;4.27;;
781;SDS011;374;52.568;13.402;2023-03-01T10:08:40;4.10;;;3.80;;
781;SDS011;374;52.568;13.402;2023-03-01T10:11:17;6.53;;;3.93;;
781;SDS011;374;52.568;13.402;2023-03-01T10:13:49;5.03;;;4.33;;
781;SDS011;374;52.568;13.402;2023-03-01T10:19:23;6.03;;;4.20;;
781;SDS011;374;52.568;13.402;2023-03-01T10:21:54;5.37;;;4.73;;
781;SDS011;374;52.568;13.402;2023-03-01T10:24:25;6.40;;;4.03;;
781;SDS011;374;52.568;13.402;2023-03-01T10:26:56;10.83;;;4.63;;
781;SDS011;374;52.568;13.402;2023-03-01T10:29:27;6.13;;;4.30;;
781;SDS011;374;52.568;13.402;2023-03-01T10:31:59;4.93;;;3.90;;
781;SDS011;374;52.568;13.402;2023-03-01T10:34:29;6.77;;;4.20;;
781;SDS011;374;52.568;13.402;2023-03-01T10:36:58;9.43;;;3.93;;
781;SDS011;374;52.568;13.402;2023-03-01T10:39:35;9.37;;;4.43;;
781;SDS011;374;52.568;13.402;2023-03-01T10:42:01;6.03;;;3.93;;
781;SDS011;374;52.568;13.402;2023-03-01T10:44:45;4.13;;;3.57;;
781;SDS011;374;52.568;13.402;2023-03-01T10:47:18;6.20;;;3.60;;
781;SDS011;374;52.568;13.402;2023-03-01T10:49:53;4.17;;;3.60;;
781;SDS011;374;52.568;13.402;2023-03-01T10:52:26;5.40;;;3.93;;
781;SDS011;374;52.568;13.402;2023-03-01T10:54:57;5.00;;;3.90;;
781;SDS011;374;52.568;13.402;2023-03-01T10:57:46;5.33;;;3.97;;
781;SDS011;374;52.568;13.402;2023-03-01T11:00:24;6.10;;;3.60;;
781;SDS011;374;52.568;13.402;2023-03-01T11:02:51;9.77;;;6.90;;
781;SDS011;374;52.568;13.402;2023-03-01T11:05:34;5.47;;;3.93;;
781;SDS011;374;52.568;13.402;2023-03-01T11:08:00;5.17;;;3.90;;
781;SDS011;374;52.568;13.402;2023-03-01T11:10:32;6.37;;;4.20;;
781;SDS011;374;52.568;13.402;2023-03-01T11:13:16;6.93;;;4.10;;
781;SDS011;374;52.568;13.402;2023-03-01T11:15:43;7.70;;;4.00;;
781;SDS011;374;52.568;13.402;2023-03-01T11:18:24;3.80;;;3.40;;
781;SDS011;374;52.568;13.402;2023-03-01T11:20:51;4.10;;;3.70;;
781;SDS011;374;52.568;13.402;2023-03-01T11:23:19;3.67;;;3.37;;
781;SDS011;374;52.568;13.402;2023-03-01T11:25:52;4.87;;;3.70;;
781;SDS011;374;52.568;13.402;2023-03-01T11:28:20;5.87;;;3.57;;
781;SDS011;374;52.568;13.402;2023-03-01T11:30:49;7.63;;;3.93;;
781;SDS011;374;52.568;13.402;2023-03-01T11:33:18;5.17;;;3.80;;
781;SDS011;374;52.568;13.402;2023-03-01T11:36:00;4.77;;;3.90;;
781;SDS011;374;52.568;13.402;2023-03-01T11:38:43;5.00;;;3.60;;
781;SDS011;374;52.568;13.402;2023-03-01T11:41:16;4.50;;;3.70;;
781;SDS011;374;52.568;13.402;2023-03-01T11:49:12;3.47;;;3.17;;
781;SDS011;374;52.568;13.402;2023-03-01T11:52:08;5.10;;;3.80;;
781;SDS011;374;52.568;13.402;2023-03-01T12:01:00;4.17;;;3.00;;
781;SDS011;374;52.568;13.402;2023-03-01T12:03:43;4.40;;;3.70;;
781;SDS011;374;52.568;13.402;2023-03-01T12:06:19;3.77;;;3.20;;
781;SDS011;374;52.568;13.402;2023-03-01T12:09:15;4.33;;;3.33;;
781;SDS011;374;52.568;13.402;2023-03-01T12:12:03;4.37;;;3.97;;
781;SDS011;374;52.568;13.402;2023-03-01T12:14:34;4.50;;;3.50;;
781;SDS011;374;52.568;13.402;2023-03-01T12:17:23;3.93;;;2.97;;
781;SDS011;374;52.568;13.402;2023-03-01T12:20:23;4.27;;;3.30;;
781;SDS011;374;52.568;13.402;2023-03-01T12:25:58;3.50;;;3.03;;
781;SDS011;374;52.568;13.402;2023-03-01T12:28:33;4.37;;;3.07;;
781;SDS011;374;52.568;13.402;2023-03-01T12:31:32;4.33;;;3.07;;
781;SDS011;374;52.568;13.402;2023-03-01T12:34:23;5.90;;;4.33;;
781;SDS011;374;52.568;13.402;2023-03-01T12:37:19;3.83;;;3.23;;
781;SDS011;374;52.568;13.402;2023-03-01T12:40:15;5.43;;;3.03;;
781;SDS011;374;52.568;13.402;2023-03-01T12:42:58;3.43;;;3.10;;
781;SDS011;374;52.568;13.402;2023-03-01T12:48:13;3.93;;;3.23;;
781;SDS011;374;52.568;13.402;2023-03-01T12:50:57;3.90;;;3.50;;
781;SDS011;374;52.568;13.402;2023-03-01T12:53:27;3.67;;;2.87;;
781;SDS011;374;52.568;13.402;2023-03-01T12:55:56;4.37;;;3.73;;
781;SDS011;374;52.568;13.402;2023-03-01T13:06:57;4.43;;;2.90;;
781;SDS011;374;52.568;13.402;2023-03-01T13:09:34;3.17;;;2.80;;
781;SDS011;374;52.568;13.402;2023-03-01T13:17:47;5.00;;;2.60;;
781;SDS011;374;52.568;13.402;2023-03-01T13:20:18;2.30;;;2.20;;
781;SDS011;374;52.568;13.402;2023-03-01T13:22:59;2.57;;;2.17;;
781;SDS011;374;52.568;13.402;2023-03-01T13:25:59;2.63;;;2.40;;
781;SDS011;374;52.568;13.402;2023-03-01T13:33:51;4.70;;;2.60;;
781;SDS011;374;52.568;13.402;2023-03-01T13:44:26;2.50;;;2.30;;
781;SDS011;374;52.568;13.402;2023-03-01T13:47:14;3.03;;;2.40;;
781;SDS011;374;52.568;13.402;2023-03-01T13:49:43;4.83;;;3.00;;
781;SDS011;374;52.568;13.402;2023-03-01T13:54:57;3.63;;;3.27;;
781;SDS011;374;52.568;13.402;2023-03-01T13:57:26;3.97;;;2.57;;
781;SDS011;374;52.568;13.402;2023-03-01T13:59:58;7.77;;;3.37;;
781;SDS011;374;52.568;13.402;2023-03-01T14:02:24;4.60;;;2.53;;
781;SDS011;374;52.568;13.402;2023-03-01T14:04:56;4.97;;;2.37;;
781;SDS011;374;52.568;13.402;2023-03-01T14:07:23;4.37;;;2.70;;
781;SDS011;374;52.568;13.402;2023-03-01T14:10:07;2.87;;;2.33;;
781;SDS011;374;52.568;13.402;2023-03-01T14:15:13;4.20;;;2.97;;
781;SDS011;374;52.568;13.402;2023-03-01T14:20:42;3.77;;;2.70;;
781;SDS011;374;52.568;13.402;2023-03-01T14:23:11;3.20;;;2.47;;
781;SDS011;374;52.568;13.402;2023-03-01T14:25:46;3.13;;;2.83;;
781;SDS011;374;52.568;13.402;2023-03-01T14:31:00;2.50;;;2.30;;
781;SDS011;374;52.568;13.402;2023-03-01T14:33:27;5.23;;;2.50;;
781;SDS011;374;52.568;13.402;2023-03-01T14:36:06;2.03;;;1.93;;
781;SDS011;374;52.568;13.402;2023-03-01T14:38:38;3.00;;;2.70;;
781;SDS011;374;52.568;13.402;2023-03-01T14:41:14;3.23;;;2.93;;
781;SDS011;374;52.568;13.402;2023-03-01T14:43:43;4.77;;;2.63;;
781;SDS011;374;52.568;13.402;2023-03-01T14:46:26;5.30;;;3.30;;
781;SDS011;374;52.568;13.402;2023-03-01T14:49:02;4.97;;;3.47;;
781;SDS011;374;52.568;13.402;2023-03-01T14:51:30;3.83;;;2.70;;
781;SDS011;374;52.568;13.402;2023-03-01T14:53:59;4.23;;;2.87;;
781;SDS011;374;52.568;13.402;2023-03-01T14:56:25;2.80;;;2.57;;
781;SDS011;374;52.568;13.402;2023-03-01T14:58:51;2.40;;;2.23;;
781;SDS011;374;52.568;13.402;2023-03-01T15:01:18;2.33;;;2.23;;
781;SDS011;374;52.568;13.402;2023-03-01T15:03:48;2.53;;;2.33;;
781;SDS011;374;52.568;13.402;2023-03-01T15:06:16;4.80;;;4.40;;
781;SDS011;374;52.568;13.402;2023-03-01T15:08:45;4.93;;;2.30;;
781;SDS011;374;52.568;13.402;2023-03-01T15:11:31;5.00;;;3.23;;
781;SDS011;374;52.568;13.402;2023-03-01T15:20:46;4.90;;;2.90;;
781;SDS011;374;52.568;13.402;2023-03-01T15:23:25;5.10;;;2.87;;
781;SDS011;374;52.568;13.402;2023-03-01T15:25:53;4.70;;;3.33;;
781;SDS011;374;52.568;13.402;2023-03-01T15:28:21;3.30;;;2.77;;
781;SDS011;374;52.568;13.402;2023-03-01T15:37:46;4.23;;;3.60;;
781;SDS011;374;52.568;13.402;2023-03-01T15:40:23;4.13;;;3.10;;
781;SDS011;374;52.568;13.402;2023-03-01T15:42:56;3.00;;;2.70;;
781;SDS011;374;52.568;13.402;2023-03-01T15:45:24;5.63;;;3.80;;
781;SDS011;374;52.568;13.402;2023-03-01T15:47:58;3.27;;;3.00;;
781;SDS011;374;52.568;13.402;2023-03-01T15:50:30;4.10;;;3.13;;
781;SDS011;374;52.568;13.402;2023-03-01T15:52:58;4.60;;;3.40;;
781;SDS011;374;52.568;13.402;2023-03-01T15:55:26;5.00;;;3.73;;
781;SDS011;374;52.568;13.402;2023-03-01T16:00:31;5.97;;;3.97;;
781;SDS011;374;52.568;13.402;2023-03-01T16:02:57;4.60;;;4.00;;
781;SDS011;374;52.568;13.402;2023-03-01T16:05:24;4.53;;;3.87;;
781;SDS011;374;52.568;13.402;2023-03-01T16:07:51;6.07;;;3.60;;
781;SDS011;374;52.568;13.402;2023-03-01T16:10:17;5.77;;;3.47;;
781;SDS011;374;52.568;13.402;2023-03-01T16:12:43;3.80;;;2.90;;
781;SDS011;374;52.568;13.402;2023-03-01T16:15:25;6.43;;;3.80;;
781;SDS011;374;52.568;13.402;2023-03-01T16:17:53;5.80;;;3.70;;
781;SDS011;374;52.568;13.402;2023-03-01T16:20:19;5.70;;;3.60;;
781;SDS011;374;52.568;13.402;2023-03-01T16:22:45;4.80;;;3.93;;
781;SDS011;374;52.568;13.402;2023-03-01T16:25:12;6.30;;;3.80;;
781;SDS011;374;52.568;13.402;2023-03-01T16:27:38;4.20;;;3.53;;
781;SDS011;374;52.568;13.402;2023-03-01T16:30:07;4.83;;;3.50;;
781;SDS011;374;52.568;13.402;2023-03-01T16:32:37;6.97;;;3.50;;
781;SDS011;374;52.568;13.402;2023-03-01T16:35:07;4.43;;;3.27;;
781;SDS011;374;52.568;13.402;2023-03-01T16:37:34;9.17;;;4.10;;
781;SDS011;374;52.568;13.402;2023-03-01T16:40:00;5.83;;;4.23;;
781;SDS011;374;52.568;13.402;2023-03-01T16:42:27;10.83;;;5.90;;
781;SDS011;374;52.568;13.402;2023-03-01T16:44:56;6.60;;;5.43;;
781;SDS011;374;52.568;13.402;2023-03-01T16:47:21;8.30;;;4.87;;
781;SDS011;374;52.568;13.402;2023-03-01T16:49:47;10.53;;;4.80;;
781;SDS011;374;52.568;13.402;2023-03-01T16:52:16;5.40;;;4.90;;
781;SDS011;374;52.568;13.402;2023-03-01T16:54:43;6.03;;;4.90;;
781;SDS011;374;52.568;13.402;2023-03-01T16:57:09;7.13;;;5.00;;